Marchicora — V2OQ7 — position and weather

sailwx.info

Track history (hours):
 
Tides and Currents Weather Stations Pressure Air Temp Water Temp Dewpoint Dewpoint Depression Visibility Wind Speed Wind Dir Waves Ship Positions

Marchicora

Last reported at 2016-May-25 04:10 UTC. Time now 2016-May-25 14:55 UTC.
Position N 31°13' E 029°43'.

Length 153 m; draft 10 m.

Type: Cargo ship. MMSI: 304653000.

Date/timePositionNaut miles runAvg speedWind from/ knotsBaromVisibWave heightAir tempDewpointWater temp
2016-May-25 04:10N 31°13' E 029°43'  
2016-May-21 02:26N 36°14' E 014°49'1213.1
2016-May-21 01:33N 36°19' E 014°36'1313.0
2016-May-21 00:33N 36°25' E 014°21'1313.2
2016-May-20 23:33N 36°32' E 014°08'1413.7
2016-May-20 22:33N 36°40' E 013°54'1414.0
2016-May-20 21:33N 36°47' E 013°39'52912.9
2016-May-19 04:31N 37°12' E 002°38'1313.5
2016-May-19 03:33N 37°09' E 002°22'1413.8
2016-May-19 02:34N 37°06' E 002°06'1413.8
2016-May-19 01:34N 37°03' E 001°49'1413.8
2016-May-19 00:33N 37°00' E 001°32'1713.6
2016-May-18 23:19N 36°57' E 001°11'1113.4
2016-May-18 22:28N 36°54' E 000°57'1212.9
2016-May-18 21:33N 36°52' E 000°43'1413.1
2016-May-18 20:29N 36°49' E 000°26'1413.1
2016-May-18 19:25N 36°46' E 000°08'1213.1
2016-May-18 18:32N 36°43' W 000°05'1313.0
2016-May-18 17:32N 36°41' W 000°21'1313.3
2016-May-18 16:33N 36°38' W 000°37'1413.5
2016-May-18 15:34N 36°35' W 000°54'1313.1
2016-May-18 14:33N 36°32' W 001°10'20113.4
2016-May-17 23:34N 36°00' W 005°16'10112.2
2016-May-17 15:20N 36°09' W 007°20'1013.2
2016-May-17 14:34N 36°11' W 007°32'1313.1
2016-May-17 13:34N 36°15' W 007°48'1313.2
2016-May-17 12:33N 36°18' W 008°04'1413.5
2016-May-17 11:30N 36°22' W 008°21'1313.4
2016-May-17 10:34N 36°25' W 008°36'1813.1
2016-May-17 09:13N 36°30' W 008°57'5612.0
2016-May-17 04:33N 37°14' W 009°40'2913.3
2016-May-17 02:25N 37°42' W 009°48'1113.2
2016-May-17 01:33N 37°53' W 009°51'1313.3
2016-May-17 00:33N 38°06' W 009°55'1313.2
2016-May-16 23:32N 38°19' W 009°59'1313.2
2016-May-16 22:33N 38°32' W 010°02'1313.3
2016-May-16 21:33N 38°45' W 010°06'1313.4
2016-May-16 20:33N 38°58' W 010°06'1313.3
2016-May-16 19:34N 39°12' W 010°06'1413.6
2016-May-16 18:33N 39°25' W 010°06'  
Track history (hours):
 
Tides and Currents Weather Stations Pressure Air Temp Water Temp Dewpoint Dewpoint Depression Visibility Wind Speed Wind Dir Waves Ship Positions

Marchicora

Last reported at 2016-May-25 04:10 UTC. Time now 2016-May-25 14:55 UTC.
Position N 31°13' E 029°43'.

Length 153 m; draft 10 m.

Type: Cargo ship. MMSI: 304653000.

Date/timePositionNaut miles runAvg speedWind from/ knotsBaromVisibWave heightAir tempDewpointWater temp
2016-May-25 04:10N 31°13' E 029°43'  
2016-May-21 02:26N 36°14' E 014°49'1213.1
2016-May-21 01:33N 36°19' E 014°36'1313.0
2016-May-21 00:33N 36°25' E 014°21'1313.2
2016-May-20 23:33N 36°32' E 014°08'1413.7
2016-May-20 22:33N 36°40' E 013°54'1414.0
2016-May-20 21:33N 36°47' E 013°39'52912.9
2016-May-19 04:31N 37°12' E 002°38'1313.5
2016-May-19 03:33N 37°09' E 002°22'1413.8
2016-May-19 02:34N 37°06' E 002°06'1413.8
2016-May-19 01:34N 37°03' E 001°49'1413.8
2016-May-19 00:33N 37°00' E 001°32'1713.6
2016-May-18 23:19N 36°57' E 001°11'1113.4
2016-May-18 22:28N 36°54' E 000°57'1212.9
2016-May-18 21:33N 36°52' E 000°43'1413.1
2016-May-18 20:29N 36°49' E 000°26'1413.1
2016-May-18 19:25N 36°46' E 000°08'1213.1
2016-May-18 18:32N 36°43' W 000°05'1313.0
2016-May-18 17:32N 36°41' W 000°21'1313.3
2016-May-18 16:33N 36°38' W 000°37'1413.5
2016-May-18 15:34N 36°35' W 000°54'1313.1
2016-May-18 14:33N 36°32' W 001°10'20113.4
2016-May-17 23:34N 36°00' W 005°16'10112.2
2016-May-17 15:20N 36°09' W 007°20'1013.2
2016-May-17 14:34N 36°11' W 007°32'1313.1
2016-May-17 13:34N 36°15' W 007°48'1313.2
2016-May-17 12:33N 36°18' W 008°04'1413.5
2016-May-17 11:30N 36°22' W 008°21'1313.4
2016-May-17 10:34N 36°25' W 008°36'1813.1
2016-May-17 09:13N 36°30' W 008°57'5612.0
2016-May-17 04:33N 37°14' W 009°40'2913.3
2016-May-17 02:25N 37°42' W 009°48'1113.2
2016-May-17 01:33N 37°53' W 009°51'1313.3
2016-May-17 00:33N 38°06' W 009°55'1313.2
2016-May-16 23:32N 38°19' W 009°59'1313.2
2016-May-16 22:33N 38°32' W 010°02'1313.3
2016-May-16 21:33N 38°45' W 010°06'1313.4
2016-May-16 20:33N 38°58' W 010°06'1313.3
2016-May-16 19:34N 39°12' W 010°06'1413.6
2016-May-16 18:33N 39°25' W 010°06'  

Dump ship's entire track history